Adams Cove, New York
Current Conditions -  °F | °C
As of 11:56 PM on Sunday 19 Oct 2014 (Local Time) from KART Reporting Station
Clear Clear  
Wind Chill:   Ceiling: Unl
Heat Index:   Visibility: 10mi
Dew Point: -2°   Wind: 0mph
Humidity: 82%   Direction: NA
Pressure: 30.01"   Gusts: NA
Location:  44.0116°N, 76.0789°W
Report Text: KART 200356Z AUTO 00000KT 10SM CLR 01/M02 A3001 RMK AO2 SLP166 T00061022
Loading
Personal Weather Stations






























Interactive Weather Map
Tropical Storm Tracking
New forecast layout! Learn more

10-Day Weather Forecast

Advertisements
Track Severe Weather on mobile